This is the latest recevied weather packets stored in our database for station/object DJ0JJ-11. If no packets are shown the sender has not sent any weather packets the latest 10 day(s).
| Time | Temp. | Humidity | Pressure | Rain* | Wind** | Luminosity | Snow |
|---|---|---|---|---|---|---|---|
| 1777700623 | 10.56° C | 68% | 1023.9 hPa | - | - | - | - |
| 1777699723 | 10° C | 71% | 1024 hPa | - | - | - | - |
| 1777698823 | 10.56° C | 65% | 1023.9 hPa | - | - | - | - |
| 1777697923 | 10° C | 65% | 1023.7 hPa | - | - | - | - |
| 1777697023 | 9.44° C | 66% | 1023.7 hPa | - | - | - | - |
| 1777696123 | 10° C | 64% | 1023.7 hPa | - | - | - | - |
| 1777695222 | 10° C | 64% | 1023.7 hPa | - | - | - | - |
| 1777694322 | 9.44° C | 66% | 1023.7 hPa | - | - | - | - |
| 1777693422 | 8.33° C | 70% | 1023.6 hPa | - | - | - | - |
| 1777692522 | 10° C | 66% | 1023.5 hPa | - | - | - | - |
| 1777691622 | 10° C | 65% | 1023.5 hPa | - | - | - | - |
| 1777690722 | 10.56° C | 63% | 1023.5 hPa | - | - | - | - |
| 1777689821 | 10° C | 64% | 1023.5 hPa | - | - | - | - |
| 1777688921 | 10.56° C | 62% | 1023.5 hPa | - | - | - | - |
| 1777688021 | 10° C | 64% | 1023.5 hPa | - | - | - | - |
| 1777687121 | 9.44° C | 67% | 1023.7 hPa | - | - | - | - |
| 1777686221 | 10.56° C | 65% | 1023.7 hPa | - | - | - | - |
| 1777685321 | 10.56° C | 66% | 1023.7 hPa | - | - | - | - |
| 1777684421 | 11.11° C | 64% | 1023.8 hPa | - | - | - | - |
| 1777683521 | 9.44° C | 66% | 1023.9 hPa | - | - | - | - |
| 1777682620 | 11.67° C | 60% | 1023.7 hPa | - | - | - | - |
| 1777681720 | 11.67° C | 61% | 1023.9 hPa | - | - | - | - |
| 1777680820 | 11.67° C | 61% | 1023.8 hPa | - | - | - | - |
| 1777679920 | 12.22° C | 58% | 1023.8 hPa | - | - | - | - |
| 1777679020 | 11.11° C | 62% | 1023.9 hPa | - | - | - | - |
* Rain since midnight (hover to see other rain measurements)
** Current wind speed in m/s (hover to see current wind gust speed)